Time;durP1;ratioP1;P1;durP2;ratioP2;P2;SDS_P1;SDS_P2;PMS_P1;PMS_P2;Temp;Humidity;BMP_temperature;BMP_pressure;BME280_temperature;BME280_humidity;BME280_pressure;Samples;Min_cycle;Max_cycle;Signal;HPM_P1;HPM_P2
2021/03/29 00:00:06;;;;;;;6.53;3.00;;;205.40;1612.80;;;;;;5032063;28;20026;-71
2021/03/29 00:02:32;;;;;;;7.07;3.50;;;205.40;1638.40;;;;;;5013454;28;20399;-74
2021/03/29 00:04:58;;;;;;;9.18;3.28;;;205.30;1638.40;;;;;;5031789;28;20494;-72
2021/03/29 00:07:25;;;;;;;7.50;3.13;;;205.40;1612.80;;;;;;5031684;28;20037;-71
2021/03/29 00:09:51;;;;;;;6.10;3.22;;;205.30;1638.40;;;;;;5031933;28;20029;-74
2021/03/29 00:12:19;;;;;;;6.05;3.35;;;205.30;1638.40;;;;;;5025620;28;20030;-70
2021/03/29 00:14:46;;;;;;;5.80;3.10;;;205.20;1638.40;;;;;;5011777;28;20026;-73
2021/03/29 00:17:15;;;;;;;8.45;3.50;;;205.20;1689.60;;;;;;5012122;28;20514;-72
2021/03/29 00:19:42;;;;;;;6.32;3.25;;;205.10;1689.60;;;;;;5013936;28;20037;-78
2021/03/29 00:22:09;;;;;;;6.57;3.20;;;;;;;;;;4994472;28;20089;-79
2021/03/29 00:24:35;;;;;;;7.68;3.20;;;205.10;1715.20;;;;;;5011939;28;20113;-72
2021/03/29 00:27:03;;;;;;;7.40;3.35;;;205.00;1715.20;;;;;;5012896;28;20395;-73
2021/03/29 00:29:28;;;;;;;5.22;3.03;;;204.90;1689.60;;;;;;5011979;28;20100;-78
2021/03/29 00:31:55;;;;;;;7.28;3.30;;;;;;;;;;5011247;28;20468;-73
2021/03/29 00:34:21;;;;;;;8.18;3.20;;;205.00;1689.60;;;;;;5013105;28;20032;-72
2021/03/29 00:36:48;;;;;;;6.65;2.88;;;204.90;1689.60;;;;;;5012641;28;20108;-75
2021/03/29 00:39:15;;;;;;;6.88;2.90;;;204.80;1689.60;;;;;;5013835;28;20026;-75
2021/03/29 00:41:41;;;;;;;6.53;3.17;;;204.80;1740.80;;;;;;5011569;28;20035;-81
2021/03/29 00:44:09;;;;;;;7.90;3.10;;;204.80;1740.80;;;;;;5018930;28;20030;-72
2021/03/29 00:46:38;;;;;;;6.05;3.00;;;180.10;1792.00;;;;;;4999957;28;20030;-74
2021/03/29 00:49:04;;;;;;;6.57;2.97;;;180.10;1766.40;;;;;;5025474;28;20029;-72
2021/03/29 00:51:32;;;;;;;4.65;2.67;;;180.10;1792.00;;;;;;5014969;28;20037;-72
2021/03/29 00:54:00;;;;;;;7.03;3.00;;;180.10;1792.00;;;;;;5011574;28;20484;-74
2021/03/29 00:56:26;;;;;;;6.22;3.13;;;180.10;1817.60;;;;;;5011800;28;20105;-76
2021/03/29 00:58:54;;;;;;;7.80;3.42;;;180.00;1792.00;;;;;;5023866;28;20081;-71
2021/03/29 01:01:26;;;;;;;6.38;2.83;;;180.00;1766.40;;;;;;5011580;28;20022;-76
2021/03/29 01:03:58;;;;;;;6.80;3.17;;;180.00;1792.00;;;;;;5012126;28;20026;-74
2021/03/29 01:06:28;;;;;;;6.00;2.88;;;180.00;1792.00;;;;;;5012812;28;20022;-72
2021/03/29 01:09:00;;;;;;;4.85;2.75;;;179.90;1817.60;;;;;;5013770;28;20030;-76
2021/03/29 01:11:28;;;;;;;8.52;3.10;;;179.90;1843.20;;;;;;5010010;28;20483;-78
2021/03/29 01:14:01;;;;;;;4.97;3.00;;;179.90;1843.20;;;;;;5012919;28;20040;-73
2021/03/29 01:16:32;;;;;;;7.75;3.10;;;179.80;1817.60;;;;;;5012604;28;20050;-78
2021/03/29 01:18:59;;;;;;;10.80;2.95;;;179.80;1817.60;;;;;;5017724;28;20033;-71
2021/03/29 01:21:43;;;;;;;6.28;2.83;;;179.80;1817.60;;;;;;5009729;28;20029;-72
2021/03/29 01:24:25;;;;;;;;;;;179.80;1792.00;;;;;;5015680;28;20032;-73
2021/03/29 01:26:52;;;;;;;6.70;3.03;;;179.80;1817.60;;;;;;5019941;28;19917;-73
2021/03/29 01:29:19;;;;;;;5.28;2.90;;;179.70;1817.60;;;;;;5016171;28;20026;-79
2021/03/29 01:31:45;;;;;;;5.38;3.10;;;179.70;1817.60;;;;;;5011360;28;20455;-79
2021/03/29 01:34:14;;;;;;;6.22;2.78;;;179.70;1868.80;;;;;;5011906;28;20097;-72
2021/03/29 01:36:43;;;;;;;8.77;3.40;;;179.80;1868.80;;;;;;5016205;28;20053;-76
2021/03/29 01:39:12;;;;;;;6.40;3.00;;;179.60;1894.40;;;;;;5016790;28;20029;-79
2021/03/29 01:41:39;;;;;;;9.27;3.25;;;179.60;1894.40;;;;;;4998383;28;20029;-73
2021/03/29 01:44:06;;;;;;;9.52;2.90;;;179.60;1894.40;;;;;;5015609;28;20026;-78
2021/03/29 01:46:32;;;;;;;7.30;3.35;;;179.60;1894.40;;;;;;5015585;28;20101;-78
2021/03/29 01:48:59;;;;;;;5.55;2.80;;;179.60;1894.40;;;;;;5018787;28;20022;-73
2021/03/29 01:51:25;;;;;;;9.27;2.90;;;179.60;1920.00;;;;;;5014024;28;20125;-81
2021/03/29 01:53:52;;;;;;;7.75;3.40;;;179.60;1868.80;;;;;;4997334;28;20368;-81
2021/03/29 01:56:17;;;;;;;7.10;2.90;;;179.60;1894.40;;;;;;5015065;28;20026;-76
2021/03/29 01:58:43;;;;;;;9.82;3.45;;;179.60;1868.80;;;;;;5015166;28;20041;-80
2021/03/29 02:01:11;;;;;;;7.20;3.05;;;179.50;1920.00;;;;;;5013595;28;20034;-79
2021/03/29 02:03:39;;;;;;;9.32;3.22;;;179.50;1894.40;;;;;;5014041;28;20017;-80
2021/03/29 02:06:07;;;;;;;7.22;3.17;;;179.50;1920.00;;;;;;5014989;28;20466;-73
2021/03/29 02:08:34;;;;;;;5.28;2.90;;;179.50;1945.60;;;;;;5015546;28;20465;-79
2021/03/29 02:11:01;;;;;;;9.15;3.00;;;179.40;1945.60;;;;;;5017626;28;20029;-77
2021/03/29 02:13:31;;;;;;;6.95;3.00;;;179.40;1945.60;;;;;;5020005;28;20065;-76
2021/03/29 02:16:03;;;;;;;6.22;3.10;;;179.40;1920.00;;;;;;5014381;28;20076;-71
2021/03/29 02:18:41;;;;;;;8.18;3.40;;;179.40;1920.00;;;;;;5015838;28;20387;-73
2021/03/29 02:21:20;;;;;;;6.10;3.10;;;179.40;1920.00;;;;;;4984985;28;20105;-73
2021/03/29 02:23:49;;;;;;;6.85;2.90;;;179.40;1945.60;;;;;;5010411;28;20034;-77
2021/03/29 02:26:21;;;;;;;6.07;3.30;;;179.30;1971.20;;;;;;5015602;28;20056;-78
2021/03/29 02:28:48;;;;;;;5.72;3.00;;;179.40;1996.80;;;;;;5016159;28;20026;-79
2021/03/29 02:31:15;;;;;;;8.75;3.03;;;179.30;1945.60;;;;;;5014065;28;20073;-71
2021/03/29 02:33:42;;;;;;;6.00;3.30;;;179.30;1945.60;;;;;;4996849;28;20030;-75
2021/03/29 02:36:09;;;;;;;9.93;3.20;;;179.30;1920.00;;;;;;5014201;28;20022;-79
2021/03/29 02:38:35;;;;;;;5.10;3.00;;;179.30;1920.00;;;;;;5015610;28;20033;-81
2021/03/29 02:41:02;;;;;;;7.72;3.30;;;179.30;1920.00;;;;;;5014816;28;20018;-79
2021/03/29 02:43:30;;;;;;;7.30;3.25;;;179.30;1920.00;;;;;;5018515;28;20030;-79
2021/03/29 02:46:02;;;;;;;7.25;3.40;;;179.40;1920.00;;;;;;5013846;28;20037;-77
2021/03/29 02:48:32;;;;;;;6.10;2.65;;;179.40;1945.60;;;;;;5003561;28;20153;-81
2021/03/29 02:50:59;;;;;;;6.78;3.58;;;179.30;1920.00;;;;;;5005057;28;20034;-79
2021/03/29 02:53:33;;;;;;;7.55;3.20;;;179.50;1920.00;;;;;;5011429;28;20025;-78
2021/03/29 02:56:04;;;;;;;7.72;2.75;;;179.30;1894.40;;;;;;5014063;28;20030;-73
2021/03/29 02:58:32;;;;;;;7.07;3.10;;;179.30;1920.00;;;;;;5008473;28;20029;-80
2021/03/29 03:00:58;;;;;;;4.65;2.80;;;179.30;1971.20;;;;;;5014194;28;20431;-80
2021/03/29 03:03:26;;;;;;;7.75;3.03;;;179.30;1971.20;;;;;;5014638;28;20022;-77
2021/03/29 03:05:53;;;;;;;7.53;3.38;;;179.30;1996.80;;;;;;4996390;28;20513;-79
2021/03/29 03:08:21;;;;;;;6.25;3.22;;;179.20;1971.20;;;;;;5015198;28;20060;-81
2021/03/29 03:10:47;;;;;;;6.28;2.90;;;179.50;1945.60;;;;;;5018323;28;20116;-84
2021/03/29 03:13:13;;;;;;;8.27;3.45;;;179.20;1971.20;;;;;;5020253;28;20076;-77
2021/03/29 03:15:40;;;;;;;4.90;2.80;;;179.20;1971.20;;;;;;5015897;28;20085;-72
2021/03/29 03:18:09;;;;;;;8.40;3.40;;;179.20;1971.20;;;;;;5012195;28;20479;-71
2021/03/29 03:20:36;;;;;;;5.80;3.50;;;179.20;1971.20;;;;;;5013748;28;20026;-76
2021/03/29 03:23:04;;;;;;;9.57;3.38;;;154.50;1971.20;;;;;;5023143;28;20017;-77
2021/03/29 03:25:35;;;;;;;8.77;3.53;;;154.50;1971.20;;;;;;5015414;28;20084;-76
2021/03/29 03:28:03;;;;;;;8.60;3.53;;;154.50;1996.80;;;;;;5017663;28;20021;-77
2021/03/29 03:30:34;;;;;;;7.03;3.13;;;154.50;1996.80;;;;;;5012285;28;20050;-73
2021/03/29 03:33:04;;;;;;;10.48;3.35;;;154.40;2022.40;;;;;;5015417;28;20503;-80
2021/03/29 03:35:32;;;;;;;8.32;3.33;;;154.40;1996.80;;;;;;5013419;28;20080;-72
2021/03/29 03:38:08;;;;;;;7.95;3.72;;;154.40;2022.40;;;;;;4985103;28;20452;-78
2021/03/29 03:40:35;;;;;;;10.80;3.53;;;154.40;1996.80;;;;;;5009821;28;20026;-79
2021/03/29 03:43:02;;;;;;;8.60;3.38;;;154.40;2048.00;;;;;;5019527;28;20044;-76
2021/03/29 03:45:39;;;;;;;9.50;3.40;;;154.40;2073.60;;;;;;5013855;28;20030;-80
2021/03/29 03:48:06;;;;;;;6.45;3.20;;;154.30;2022.40;;;;;;5014246;28;20026;-72
2021/03/29 03:50:32;;;;;;;7.15;3.58;;;154.40;2252.80;;;;;;5012895;28;20499;-80
2021/03/29 03:52:59;;;;;;;11.02;5.43;;;154.30;2022.40;;;;;;5012100;28;20068;-73
2021/03/29 03:55:26;;;;;;;6.20;3.20;;;154.40;2048.00;;;;;;5013095;28;20395;-73
2021/03/29 03:57:52;;;;;;;6.20;3.63;;;154.30;2048.00;;;;;;5019669;28;20125;-71
2021/03/29 04:00:19;;;;;;;13.18;3.58;;;154.30;2073.60;;;;;;5013725;28;20523;-75
2021/03/29 04:02:47;;;;;;;7.38;4.05;;;154.30;2048.00;;;;;;4996297;28;20368;-77
2021/03/29 04:05:15;;;;;;;7.60;3.35;;;154.30;2048.00;;;;;;5012506;28;20060;-75
2021/03/29 04:07:41;;;;;;;9.05;3.33;;;154.30;2022.40;;;;;;5013355;28;20033;-73
2021/03/29 04:10:17;;;;;;;21.08;11.75;;;154.40;2048.00;;;;;;5012245;28;20025;-77
2021/03/29 04:12:46;;;;;;;31.52;17.90;;;154.40;2022.40;;;;;;4996862;28;20037;-75
2021/03/29 04:15:13;;;;;;;12.55;6.57;;;154.30;2022.40;;;;;;5017468;28;20080;-76
2021/03/29 04:17:40;;;;;;;8.88;4.72;;;154.30;2073.60;;;;;;5014042;28;20105;-73
2021/03/29 04:20:07;;;;;;;8.68;4.25;;;154.30;2073.60;;;;;;5014739;28;20026;-75
2021/03/29 04:22:33;;;;;;;19.60;4.18;;;154.30;2073.60;;;;;;5011614;28;20025;-75
2021/03/29 04:24:58;;;;;;;11.57;3.80;;;154.20;2099.20;;;;;;5012702;28;20022;-73
2021/03/29 04:27:24;;;;;;;14.00;4.57;;;154.20;2124.80;;;;;;5011984;28;20356;-74
2021/03/29 04:29:50;;;;;;;9.93;4.15;;;154.20;2150.40;;;;;;5011036;28;20033;-76
2021/03/29 04:32:16;;;;;;;11.32;3.78;;;154.20;2124.80;;;;;;5011775;28;20034;-77
2021/03/29 04:34:42;;;;;;;11.27;4.32;;;154.20;2150.40;;;;;;4995516;28;20030;-80
2021/03/29 04:37:07;;;;;;;8.90;3.60;;;154.30;2124.80;;;;;;5014369;28;20133;-78
2021/03/29 04:39:33;;;;;;;11.57;3.85;;;154.40;2124.80;;;;;;5014373;28;20025;-77
2021/03/29 04:41:59;;;;;;;8.50;3.72;;;154.40;2099.20;;;;;;5009883;28;20087;-78
2021/03/29 04:44:24;;;;;;;11.57;3.58;;;179.20;2048.00;;;;;;5006445;28;20045;-71
2021/03/29 04:46:50;;;;;;;10.32;3.30;;;179.20;2073.60;;;;;;5009711;28;20040;-85
2021/03/29 04:49:16;;;;;;;8.55;3.33;;;179.40;2099.20;;;;;;5016832;28;20017;-79
2021/03/29 04:51:42;;;;;;;10.27;4.03;;;179.50;2073.60;;;;;;5024126;28;20479;-74
2021/03/29 04:54:07;;;;;;;6.53;3.30;;;179.60;2073.60;;;;;;5019843;28;20033;-83
2021/03/29 04:56:34;;;;;;;7.50;3.30;;;179.90;2073.60;;;;;;5011134;28;20018;-80
2021/03/29 04:58:59;;;;;;;19.10;4.35;;;205.00;2048.00;;;;;;5018121;28;20033;-75
2021/03/29 05:01:25;;;;;;;23.00;4.35;;;205.50;2022.40;;;;;;5010790;28;20032;-76
2021/03/29 05:03:51;;;;;;;11.85;3.92;;;230.60;1971.20;;;;;;4994704;28;20391;-86
2021/03/29 05:06:17;;;;;;;10.25;4.22;;;230.80;1868.80;;;;;;5010437;28;20033;-75
2021/03/29 05:08:43;;;;;;;10.18;4.30;;;231.20;1792.00;;;;;;5023774;28;20045;-85
2021/03/29 05:11:10;;;;;;;12.20;4.55;;;256.10;1715.20;;;;;;5016424;28;20026;-78
2021/03/29 05:13:36;;;;;;;12.45;3.95;;;256.10;1740.80;;;;;;5015567;28;20052;-78
2021/03/29 05:16:02;;;;;;;20.80;4.30;;;256.70;1715.20;;;;;;5021002;28;20499;-70
2021/03/29 05:18:28;;;;;;;14.63;4.55;;;256.80;1664.00;;;;;;5021941;28;20030;-79
2021/03/29 05:20:55;;;;;;;27.27;6.85;;;281.80;1664.00;;;;;;5015589;28;20030;-71
2021/03/29 05:23:21;;;;;;;11.45;4.85;;;282.20;1664.00;;;;;;5024862;28;20021;-79
2021/03/29 05:25:48;;;;;;;17.88;5.40;;;282.40;1587.20;;;;;;5002751;28;20034;-77
2021/03/29 05:28:14;;;;;;;8.82;4.32;;;307.20;1664.00;;;;;;5007888;28;20022;-78
2021/03/29 05:30:40;;;;;;;13.98;6.50;;;307.50;1587.20;;;;;;5018053;28;20053;-85
2021/03/29 05:33:06;;;;;;;21.52;6.07;;;307.60;1510.40;;;;;;5015701;28;20080;-76
2021/03/29 05:35:32;;;;;;;21.13;7.07;;;332.80;1587.20;;;;;;4998734;28;20556;-67
2021/03/29 05:37:58;;;;;;;21.83;7.18;;;333.30;1561.60;;;;;;5015643;28;20052;-73
2021/03/29 05:40:23;;;;;;;30.42;12.80;;;358.40;1536.00;;;;;;5015840;28;20034;-85
2021/03/29 05:42:51;;;;;;;32.47;11.85;;;;;;;;;;5016563;28;20030;-73
2021/03/29 05:45:17;;;;;;;28.40;11.02;;;;;;;;;;5027564;28;20021;-78
2021/03/29 05:47:43;;;;;;;34.42;9.73;;;;;;;;;;5020945;28;20033;-68
2021/03/29 05:50:11;;;;;;;37.65;12.52;;;;;;;;;;5015069;28;20018;-74
2021/03/29 05:52:39;;;;;;;36.22;15.68;;;;;;;;;;5013133;28;20076;-72
2021/03/29 05:55:08;;;;;;;42.30;18.23;;;410.30;1254.40;;;;;;5016544;28;20467;-76
2021/03/29 06:00:33;;;;;;;62.20;29.55;;;;;;;;;;5016287;28;20814;-70
2021/03/29 06:03:18;;;;;;;58.38;31.02;;;;;;;;;;5021274;28;20110;-75
2021/03/29 06:05:44;;;;;;;51.05;27.27;;;;;;;;;;5020217;28;20079;-73
2021/03/29 06:08:10;;;;;;;48.22;23.55;;;486.50;1254.40;;;;;;5016012;28;20480;-66
2021/03/29 06:10:36;;;;;;;43.50;22.10;;;486.90;1075.20;;;;;;5015845;28;20072;-73
2021/03/29 06:13:30;;;;;;;45.67;19.48;;;512.30;972.80;;;;;;5018818;28;20045;-73
2021/03/29 06:16:02;;;;;;;45.75;19.80;;;;;;;;;;5020342;28;20132;-78
2021/03/29 06:18:28;;;;;;;42.90;15.65;;;537.60;947.20;;;;;;5025666;28;20044;-77
2021/03/29 06:21:00;;;;;;;24.35;12.82;;;537.60;896.00;;;;;;5017712;28;20508;-83
2021/03/29 06:23:26;;;;;;;20.03;10.23;;;512.60;896.00;;;;;;5020035;28;20026;-78
2021/03/29 06:25:52;;;;;;;24.27;11.10;;;;;;;;;;5018409;28;20030;-75
2021/03/29 06:28:26;;;;;;;23.40;10.73;;;;;;;;;;5014358;28;20112;-80
2021/03/29 06:30:53;;;;;;;22.17;10.35;;;;;;;;;;5013516;28;20018;-76
2021/03/29 06:33:19;;;;;;;17.38;8.70;;;;;;;;;;5008544;28;20038;-82
2021/03/29 06:35:47;;;;;;;11.52;6.97;;;;;;;;;;5012805;28;20060;-72
2021/03/29 06:38:17;;;;;;;24.33;9.60;;;;;;;;;;5022974;28;20044;-68
2021/03/29 06:40:43;;;;;;;18.52;8.40;;;;;;;;;;5020304;28;20767;-75
2021/03/29 06:43:21;;;;;;;21.77;7.70;;;;;;;;;;5018595;28;20856;-76
2021/03/29 06:45:48;;;;;;;17.13;6.75;;;;;;;;;;5016294;28;20033;-73
2021/03/29 06:48:34;;;;;;;12.32;6.03;;;;;;;;;;5023459;28;20025;-74
2021/03/29 06:51:06;;;;;;;13.25;7.32;;;;;;;;;;5021739;28;20033;-68
2021/03/29 06:53:32;;;;;;;23.45;6.95;;;;;;;;;;5020532;28;20029;-68
2021/03/29 06:56:18;;;;;;;11.55;5.50;;;;;;;;;;5025810;28;20022;-67
2021/03/29 06:58:44;;;;;;;13.93;6.18;;;;;;;;;;5017675;28;20076;-67
2021/03/29 07:01:14;;;;;;;13.85;6.45;;;;;;;;;;5016646;28;20133;-75
2021/03/29 07:03:42;;;;;;;19.10;7.57;;;;;;;;;;5015594;28;20026;-74
2021/03/29 07:06:08;;;;;;;16.00;7.60;;;;;;;;;;5014894;28;20068;-71
2021/03/29 07:08:34;;;;;;;14.52;7.15;;;;;;;;;;5016860;28;20074;-74
2021/03/29 07:11:00;;;;;;;26.02;9.32;;;;;;;;;;5011624;28;20034;-73
2021/03/29 07:13:28;;;;;;;19.75;9.07;;;;;;;;;;5016049;28;20063;-73
2021/03/29 07:15:56;;;;;;;14.23;6.85;;;;;;;;;;5023844;28;20084;-70
2021/03/29 07:18:22;;;;;;;39.30;7.90;;;;;;;;;;5009435;28;20034;-72
2021/03/29 07:20:48;;;;;;;13.07;6.90;;;;;;;;;;5014835;28;20026;-72
2021/03/29 07:23:14;;;;;;;14.25;6.68;;;;;;;;;;5016493;28;20040;-70
2021/03/29 07:25:41;;;;;;;18.67;6.72;;;;;;;;;;5015274;28;20034;-68
2021/03/29 07:28:10;;;;;;;14.15;6.95;;;;;;;;;;5025103;28;21457;-69
2021/03/29 07:30:47;;;;;;;11.65;5.28;;;;;;;;;;5025423;28;20774;-67
2021/03/29 07:33:14;;;;;;;14.65;5.80;;;;;;;;;;5024259;28;20054;-70
2021/03/29 07:35:48;;;;;;;11.25;5.28;;;;;;;;;;5028173;28;20395;-67
2021/03/29 07:38:14;;;;;;;14.32;6.18;;;;;;;;;;5020691;28;20029;-72
2021/03/29 07:40:41;;;;;;;13.15;4.80;;;;;;;;;;5023684;28;20429;-80
2021/03/29 07:43:13;;;;;;;12.23;5.18;;;;;;;;;;5019457;28;20036;-80
2021/03/29 07:45:44;;;;;;;6.68;3.75;;;;;;;;;;5020336;28;20057;-71
2021/03/29 07:48:10;;;;;;;8.13;3.88;;;;;;;;;;5011794;28;20026;-76
2021/03/29 07:50:36;;;;;;;8.80;3.92;;;;;;;;;;5012784;28;20064;-82
2021/03/29 07:53:04;;;;;;;8.32;4.68;;;;;;;;;;5018971;28;20514;-90
2021/03/29 07:55:43;;;;;;;8.18;4.20;;;;;;;;;;5021461;28;20033;-89
2021/03/29 07:58:13;;;;;;;12.27;4.57;;;;;;;;;;5029980;28;20035;-77
2021/03/29 08:00:39;;;;;;;13.48;4.15;;;;;;;;;;5023118;28;20163;-81
2021/03/29 08:03:11;;;;;;;17.48;5.20;;;;;;;;;;4995937;28;20515;-71
2021/03/29 08:05:44;;;;;;;11.63;5.53;;;;;;;;;;5017961;28;20029;-71
2021/03/29 08:08:26;;;;;;;9.60;5.07;;;;;;;;;;5016543;28;20029;-80
2021/03/29 08:10:55;;;;;;;9.35;4.78;;;;;;;;;;5018353;28;20033;-89
2021/03/29 08:13:40;;;;;;;11.15;4.90;;;;;;;;;;5013611;28;20032;-88
2021/03/29 08:16:14;;;;;;;11.75;5.40;;;;;;;;;;5018721;28;20124;-74
2021/03/29 08:18:58;;;;;;;12.73;5.38;;;;;;;;;;5001659;28;20022;-71
2021/03/29 08:21:57;;;;;;;16.83;5.78;;;538.20;793.60;;;;;;5015842;28;20083;-70
2021/03/29 08:24:23;;;;;;;14.48;5.68;;;;;;;;;;5006384;28;20030;-71
2021/03/29 08:26:50;;;;;;;21.75;7.00;;;486.40;870.40;;;;;;5021101;28;20484;-70
2021/03/29 08:29:17;;;;;;;20.42;6.25;;;;;;;;;;4996011;28;20026;-72
2021/03/29 08:32:16;;;;;;;15.43;7.07;;;461.50;921.60;;;;;;5020490;28;20107;-71
2021/03/29 08:35:02;;;;;;;16.15;6.53;;;461.30;896.00;;;;;;5015840;28;20030;-76
2021/03/29 08:37:30;;;;;;;24.35;7.38;;;436.00;947.20;;;;;;5016186;28;20113;-74
2021/03/29 08:39:59;;;;;;;15.98;6.68;;;435.80;947.20;;;;;;5015744;28;20033;-74
2021/03/29 08:42:29;;;;;;;17.88;6.30;;;435.70;947.20;;;;;;5008818;28;20026;-69
2021/03/29 08:44:55;;;;;;;17.85;6.93;;;435.50;972.80;;;;;;5004583;28;20041;-78
2021/03/29 08:47:23;;;;;;;19.70;7.53;;;435.50;947.20;;;;;;5025863;28;20079;-79
2021/03/29 08:49:58;;;;;;;15.55;7.78;;;435.50;972.80;;;;;;5020645;28;20104;-76
2021/03/29 08:52:26;;;;;;;19.67;7.82;;;435.40;972.80;;;;;;5016708;28;20117;-70
2021/03/29 08:54:56;;;;;;;23.45;7.57;;;435.40;1024.00;;;;;;5016406;28;20488;-67
2021/03/29 08:57:25;;;;;;;17.48;8.13;;;435.30;998.40;;;;;;5020582;28;20029;-67
2021/03/29 08:59:53;;;;;;;16.77;7.13;;;435.40;1024.00;;;;;;5019197;28;20052;-68
2021/03/29 09:02:19;;;;;;;19.80;6.97;;;435.40;972.80;;;;;;5018116;28;20026;-74
2021/03/29 09:04:59;;;;;;;18.27;7.10;;;435.40;1024.00;;;;;;5017382;28;20387;-72
2021/03/29 09:07:29;;;;;;;16.27;6.53;;;435.40;998.40;;;;;;5019392;28;20489;-70
2021/03/29 09:09:56;;;;;;;16.08;7.25;;;435.40;998.40;;;;;;5027346;28;20037;-70
2021/03/29 09:12:32;;;;;;;16.42;7.32;;;435.30;1024.00;;;;;;5017224;28;20034;-75
2021/03/29 09:15:00;;;;;;;17.00;6.65;;;435.30;998.40;;;;;;5012580;28;20046;-79
2021/03/29 09:17:32;;;;;;;14.05;5.75;;;435.20;1024.00;;;;;;5027117;28;20029;-85
2021/03/29 09:19:58;;;;;;;11.68;4.82;;;435.40;1024.00;;;;;;5017365;28;20009;-68
2021/03/29 09:22:32;;;;;;;10.40;4.55;;;435.20;998.40;;;;;;5020558;28;20029;-72
2021/03/29 09:24:59;;;;;;;11.10;4.18;;;410.40;1049.60;;;;;;4994108;28;20041;-79
2021/03/29 09:27:31;;;;;;;9.52;3.90;;;410.40;1024.00;;;;;;5010456;28;20038;-70
2021/03/29 09:30:00;;;;;;;10.50;4.40;;;410.40;1049.60;;;;;;5024053;28;20026;-70
2021/03/29 09:32:26;;;;;;;13.15;4.68;;;410.30;1049.60;;;;;;5024996;28;20038;-70
2021/03/29 09:34:53;;;;;;;13.82;3.97;;;410.30;1049.60;;;;;;5020731;28;20054;-69
2021/03/29 09:37:24;;;;;;;10.93;4.28;;;410.20;1049.60;;;;;;5015792;28;20076;-68
2021/03/29 09:40:07;;;;;;;6.55;3.47;;;410.50;1177.60;;;;;;5027026;28;20028;-71
2021/03/29 09:42:45;;;;;;;7.65;3.45;;;410.30;1024.00;;;;;;5018279;28;20014;-70
2021/03/29 09:45:23;;;;;;;8.70;4.32;;;410.20;1049.60;;;;;;5018573;28;20040;-76
2021/03/29 09:48:02;;;;;;;8.20;3.97;;;410.30;1024.00;;;;;;5017304;28;20017;-69
2021/03/29 09:50:43;;;;;;;11.18;5.38;;;410.30;1024.00;;;;;;5015837;28;20030;-68
2021/03/29 09:53:23;;;;;;;6.53;3.47;;;410.30;1049.60;;;;;;5016343;28;20033;-69
2021/03/29 09:55:54;;;;;;;9.18;4.00;;;410.20;1049.60;;;;;;5009324;28;20104;-69
2021/03/29 09:58:28;;;;;;;8.82;4.15;;;410.30;1075.20;;;;;;5024176;28;20392;-78
2021/03/29 10:01:03;;;;;;;11.15;3.90;;;410.20;1100.80;;;;;;5017073;28;20022;-71
2021/03/29 10:03:29;;;;;;;10.15;4.00;;;410.20;1075.20;;;;;;5018625;28;20026;-72
2021/03/29 10:05:56;;;;;;;11.38;3.80;;;410.20;1024.00;;;;;;5022098;28;20032;-84
2021/03/29 10:08:26;;;;;;;16.70;4.30;;;410.20;1075.20;;;;;;5016449;28;20427;-70
2021/03/29 10:11:21;;;;;;;9.55;4.75;;;410.20;1100.80;;;;;;5025141;28;20048;-72
2021/03/29 10:13:47;;;;;;;10.18;4.03;;;410.30;1100.80;;;;;;4938325;28;20509;-71
2021/03/29 10:16:16;;;;;;;13.80;5.38;;;410.30;1075.20;;;;;;4944542;28;20098;-77
2021/03/29 10:18:42;;;;;;;13.10;5.68;;;410.30;1075.20;;;;;;4931963;29;20036;-83
2021/03/29 10:21:08;;;;;;;10.13;4.88;;;410.40;1100.80;;;;;;4932789;29;20395;-69
2021/03/29 10:23:40;;;;;;;11.77;4.35;;;410.30;1075.20;;;;;;4936976;29;20118;-72
2021/03/29 10:26:18;;;;;;;10.98;4.80;;;410.30;1100.80;;;;;;4909107;29;20079;-76
2021/03/29 10:29:05;;;;;;;8.85;3.83;;;410.30;1075.20;;;;;;4932308;29;20560;-75
2021/03/29 10:31:33;;;;;;;7.97;4.18;;;410.30;1075.20;;;;;;4928548;29;20051;-67
2021/03/29 10:34:00;;;;;;;8.13;4.85;;;410.20;1075.20;;;;;;4940425;29;20036;-76
2021/03/29 10:36:28;;;;;;;10.20;4.82;;;410.20;1100.80;;;;;;4937885;29;20621;-68
2021/03/29 10:38:55;;;;;;;12.70;4.75;;;410.20;1100.80;;;;;;4940030;29;20490;-79
2021/03/29 10:41:22;;;;;;;10.35;4.60;;;410.30;1100.80;;;;;;4934377;29;20066;-68
2021/03/29 10:43:48;;;;;;;14.35;4.40;;;410.30;1100.80;;;;;;4939192;29;20394;-68
2021/03/29 10:46:14;;;;;;;10.23;5.00;;;410.40;1100.80;;;;;;4935827;29;20083;-70
2021/03/29 10:48:40;;;;;;;9.98;6.32;;;410.40;1126.40;;;;;;4926405;29;20047;-77
2021/03/29 10:51:07;;;;;;;15.32;7.38;;;410.50;1100.80;;;;;;5016188;28;20113;-86
2021/03/29 10:53:34;;;;;;;14.20;5.55;;;410.50;1100.80;;;;;;5013661;28;20022;-78
2021/03/29 10:56:00;;;;;;;14.45;6.18;;;410.30;1049.60;;;;;;5021883;28;20025;-71
2021/03/29 10:58:26;;;;;;;16.40;6.30;;;410.30;1126.40;;;;;;5028812;28;20040;-66
2021/03/29 11:00:52;;;;;;;14.60;5.65;;;410.30;1100.80;;;;;;5026134;28;20022;-77
2021/03/29 11:03:18;;;;;;;12.02;5.50;;;410.30;1100.80;;;;;;5014291;28;20375;-71
2021/03/29 11:05:44;;;;;;;12.63;5.80;;;410.30;1100.80;;;;;;5023682;28;20030;-90
2021/03/29 11:08:10;;;;;;;10.85;5.68;;;410.30;1100.80;;;;;;5015319;28;20026;-78
2021/03/29 11:10:36;;;;;;;10.02;5.00;;;410.30;1152.00;;;;;;5016615;28;20032;-88
2021/03/29 11:13:03;;;;;;;18.08;5.82;;;410.50;1126.40;;;;;;5017562;28;20106;-80
2021/03/29 11:15:31;;;;;;;12.60;5.40;;;410.50;1100.80;;;;;;5018822;28;20402;-84
2021/03/29 11:17:56;;;;;;;6.95;4.18;;;435.50;1228.80;;;;;;5020601;28;20076;-73
2021/03/29 11:20:23;;;;;;;8.57;6.70;;;435.50;1049.60;;;;;;5018086;28;20022;-73
2021/03/29 11:22:48;;;;;;;12.50;4.75;;;435.70;1075.20;;;;;;5030231;28;20029;-74
2021/03/29 11:25:15;;;;;;;12.55;3.60;;;435.70;1024.00;;;;;;5015260;28;20104;-73
2021/03/29 11:27:41;;;;;;;12.38;3.45;;;435.50;998.40;;;;;;5014250;28;20057;-78
2021/03/29 11:30:09;;;;;;;7.53;3.70;;;435.40;998.40;;;;;;5018647;28;20018;-72
2021/03/29 11:32:37;;;;;;;9.20;3.78;;;435.30;1024.00;;;;;;5014433;28;20033;-70
2021/03/29 11:35:04;;;;;;;8.73;3.70;;;435.20;1049.60;;;;;;4991167;28;20754;-70
2021/03/29 11:37:30;;;;;;;13.05;3.90;;;435.30;1049.60;;;;;;5012196;28;20018;-67
2021/03/29 11:39:57;;;;;;;12.40;4.00;;;435.40;1049.60;;;;;;5024663;28;20183;-76
2021/03/29 11:42:22;;;;;;;8.82;4.10;;;435.30;1075.20;;;;;;5018821;28;20504;-72
2021/03/29 11:44:48;;;;;;;10.68;4.47;;;435.30;1049.60;;;;;;5018778;28;20029;-73
2021/03/29 11:47:14;;;;;;;15.75;4.80;;;435.40;1024.00;;;;;;5020750;28;20037;-73
2021/03/29 11:49:40;;;;;;;9.27;4.20;;;435.40;1049.60;;;;;;5016191;28;20380;-75
2021/03/29 11:52:06;;;;;;;8.02;3.80;;;435.40;1049.60;;;;;;5013076;28;20121;-78
2021/03/29 11:54:32;;;;;;;9.45;3.78;;;410.50;1024.00;;;;;;5024747;28;20030;-76
2021/03/29 11:56:57;;;;;;;9.20;3.72;;;410.40;1075.20;;;;;;5024945;28;20117;-69
2021/03/29 11:59:25;;;;;;;27.38;4.65;;;435.20;1075.20;;;;;;5026481;28;20407;-79
2021/03/29 12:01:57;;;;;;;6.47;3.25;;;435.20;1024.00;;;;;;5020826;28;20038;-69
2021/03/29 12:04:32;;;;;;;8.35;3.58;;;435.20;1024.00;;;;;;5013162;28;20104;-69
2021/03/29 12:07:08;;;;;;;8.60;3.50;;;435.20;1024.00;;;;;;5012999;28;20021;-84
2021/03/29 12:09:48;;;;;;;7.43;3.83;;;435.30;1024.00;;;;;;5021987;28;20028;-85
2021/03/29 12:12:14;;;;;;;8.25;3.42;;;435.50;1024.00;;;;;;5014078;28;20041;-70
2021/03/29 12:14:40;;;;;;;11.68;3.60;;;435.40;1024.00;;;;;;5016080;28;20014;-79
2021/03/29 12:17:09;;;;;;;10.43;3.88;;;435.40;998.40;;;;;;5021572;28;20041;-74
2021/03/29 12:19:39;;;;;;;11.63;4.00;;;435.40;1024.00;;;;;;5020787;28;20049;-69
2021/03/29 12:22:16;;;;;;;7.85;3.72;;;435.40;1024.00;;;;;;5016831;28;20048;-69
2021/03/29 12:24:46;;;;;;;10.23;3.55;;;435.40;972.80;;;;;;5012755;28;20029;-80
2021/03/29 12:27:13;;;;;;;8.90;3.92;;;435.30;972.80;;;;;;5019739;28;20088;-73
2021/03/29 12:29:44;;;;;;;9.13;3.83;;;435.30;998.40;;;;;;5029600;28;20033;-69
2021/03/29 12:32:16;;;;;;;8.60;3.60;;;435.20;998.40;;;;;;5027684;28;20042;-80
2021/03/29 12:34:45;;;;;;;9.57;3.92;;;435.20;1024.00;;;;;;5019633;28;20109;-80
2021/03/29 12:37:16;;;;;;;11.63;3.60;;;435.20;998.40;;;;;;5017544;28;20021;-81
2021/03/29 12:40:02;;;;;;;18.40;7.70;;;435.20;1024.00;;;;;;5020846;28;20049;-76
2021/03/29 12:42:31;;;;;;;12.05;4.88;;;435.40;1024.00;;;;;;5020391;28;20110;-70
2021/03/29 12:44:57;;;;;;;18.30;8.32;;;435.40;1024.00;;;;;;5027695;28;20117;-77
2021/03/29 12:47:28;;;;;;;10.98;3.95;;;435.40;1024.00;;;;;;5024325;28;20108;-81
2021/03/29 12:50:20;;;;;;;9.52;3.67;;;435.40;972.80;;;;;;5025170;28;20022;-85